Time;durP1;ratioP1;P1;durP2;ratioP2;P2;SDS_P1;SDS_P2;PMS_P1;PMS_P2;Temp;Humidity;BMP_temperature;BMP_pressure;BME280_temperature;BME280_humidity;BME280_pressure;Samples;Min_cycle;Max_cycle;Signal;HPM_P1;HPM_P2
2023/04/20 00:00:38;;;;;;;1.20;1.05;;;;;;;19.94;36.70;102087.13;20651417;28;20050;-68
2023/04/20 00:10:40;;;;;;;1.15;0.80;;;;;;;19.91;36.96;102060.34;20660386;28;20462;-68
2023/04/20 00:20:44;;;;;;;1.30;0.93;;;;;;;19.91;36.95;102052.22;20664756;28;20552;-68
2023/04/20 00:30:50;;;;;;;1.40;1.15;;;;;;;19.89;37.07;102044.19;20665032;28;20053;-68
2023/04/20 00:40:53;;;;;;;0.73;0.67;;;;;;;19.88;37.19;102030.78;20665493;28;20490;-68
2023/04/20 00:50:54;;;;;;;1.50;0.90;;;;;;;19.84;37.55;102014.81;20663741;28;20057;-68
2023/04/20 01:01:01;;;;;;;;;;;;;;;19.83;37.39;102002.28;20662975;28;20126;-68
2023/04/20 01:11:03;;;;;;;1.10;0.75;;;;;;;19.80;37.45;101990.91;20661628;28;19965;-68
2023/04/20 01:21:04;;;;;;;0.65;0.60;;;;;;;19.81;37.54;101966.44;20659405;28;20064;-68
2023/04/20 01:31:07;;;;;;;1.23;0.90;;;;;;;19.82;37.79;101941.13;20659887;28;20105;-68
2023/04/20 01:41:18;;;;;;;1.23;0.70;;;;;;;19.91;37.64;101922.50;20659468;28;20077;-68
2023/04/20 01:51:20;;;;;;;0.70;0.60;;;;;;;19.89;37.77;101886.63;20659941;28;20056;-68
2023/04/20 02:01:22;;;;;;;1.25;0.90;;;;;;;19.95;37.87;101886.16;20659040;28;20050;-68
2023/04/20 02:11:27;;;;;;;0.80;0.80;;;;;;;19.95;37.83;101862.66;20657707;28;20458;-68
2023/04/20 02:21:29;;;;;;;0.93;0.60;;;;;;;19.94;37.90;101852.00;20658308;28;20465;-68
2023/04/20 02:31:30;;;;;;;0.95;0.80;;;;;;;19.95;37.96;101853.72;20655170;28;20046;-68
2023/04/20 02:41:32;;;;;;;0.70;0.70;;;;;;;19.93;38.05;101850.28;20656250;28;20054;-68
2023/04/20 02:51:36;;;;;;;0.50;0.50;;;;;;;19.93;37.96;101834.06;20654076;28;20093;-68
2023/04/20 03:01:42;;;;;;;0.50;0.50;;;;;;;19.81;38.14;101823.22;20653788;28;20043;-68
2023/04/20 03:11:50;;;;;;;0.47;0.47;;;;;;;19.77;38.13;101812.81;20653055;28;20074;-68
2023/04/20 03:22:09;;;;;;;0.77;0.50;;;;;;;19.74;38.41;101810.38;20652819;28;20050;-68
2023/04/20 03:32:11;;;;;;;1.63;0.80;;;;;;;19.70;38.46;101796.25;20652644;28;20043;-68
2023/04/20 03:42:12;;;;;;;0.75;0.60;;;;;;;19.68;38.35;101792.81;20655890;28;20055;-68
2023/04/20 03:52:15;;;;;;;0.82;0.80;;;;;;;19.64;38.11;101811.09;20667443;28;20046;-68
2023/04/20 04:02:17;;;;;;;0.95;0.85;;;;;;;19.63;38.09;101805.84;20666975;28;20078;-68
2023/04/20 04:12:21;;;;;;;1.23;0.63;;;;;;;19.61;38.19;101789.75;20665958;28;20439;-68
2023/04/20 04:22:25;;;;;;;1.35;0.98;;;;;;;19.56;38.39;101795.53;20665253;28;20141;-68
2023/04/20 04:33:03;;;;;;;0.70;0.70;;;;;;;19.58;38.54;101798.09;20664351;28;20050;-68
2023/04/20 04:43:09;;;;;;;0.93;0.85;;;;;;;19.55;38.54;101788.44;20648028;28;20054;-68
2023/04/20 04:53:13;;;;;;;1.40;0.80;;;;;;;19.54;39.02;101778.63;20645536;28;20073;-68
2023/04/20 05:03:15;;;;;;;1.00;0.80;;;;;;;19.51;38.92;101781.56;20663614;28;20069;-68
2023/04/20 05:13:16;;;;;;;1.58;0.82;;;;;;;19.50;39.08;101770.88;20654066;28;20042;-68
2023/04/20 05:23:18;;;;;;;1.02;0.80;;;;;;;19.46;39.75;101789.19;20645494;28;20388;-68
2023/04/20 05:33:20;;;;;;;1.63;0.90;;;;;;;19.44;40.31;101787.59;20641967;28;20050;-69
2023/04/20 05:43:21;;;;;;;1.50;1.13;;;;;;;19.42;40.79;101793.09;20644529;28;20064;-67
2023/04/20 05:53:23;;;;;;;1.05;0.85;;;;;;;19.40;41.23;101805.84;20642411;28;20058;-67
2023/04/20 06:03:24;;;;;;;1.65;1.27;;;;;;;19.39;41.62;101815.81;20649083;28;20499;-67
2023/04/20 06:13:26;;;;;;;1.98;1.30;;;;;;;19.38;41.75;101829.44;20640028;28;20125;-67
2023/04/20 06:23:28;;;;;;;1.20;0.65;;;;;;;19.36;41.70;101826.88;20647618;28;20104;-67
2023/04/20 06:33:30;;;;;;;1.10;0.90;;;;;;;19.41;41.77;101850.78;20656619;28;20046;-67
2023/04/20 06:43:31;;;;;;;2.03;1.10;;;;;;;19.39;41.97;101836.53;20656854;28;20454;-67
2023/04/20 06:53:33;;;;;;;1.02;0.93;;;;;;;19.36;42.55;101809.78;20641099;28;20052;-68
2023/04/20 07:03:37;;;;;;;0.70;0.60;;;;;;;19.50;43.05;101814.97;20642237;28;20054;-67
2023/04/20 07:13:39;;;;;;;1.55;1.20;;;;;;;19.53;43.09;101812.00;20650812;28;20461;-67
2023/04/20 07:23:42;;;;;;;1.15;1.00;;;;;;;19.55;43.06;101806.47;20656560;28;20517;-67
2023/04/20 07:33:45;;;;;;;1.38;1.00;;;;;;;19.58;42.88;101783.75;20664344;28;20517;-67
2023/04/20 07:43:47;;;;;;;1.00;0.65;;;;;;;19.63;42.73;101789.63;20665036;28;20097;-67
2023/04/20 07:53:49;;;;;;;2.15;1.00;;;;;;;19.76;43.06;101794.91;20645630;28;20136;-67
2023/04/20 08:03:51;;;;;;;2.05;0.90;;;;;;;19.88;43.43;101783.06;20642152;28;20062;-67
2023/04/20 08:13:53;;;;;;;1.40;0.95;;;;;;;20.03;44.46;101780.94;20635952;28;20055;-67
2023/04/20 08:23:57;;;;;;;1.23;0.70;;;;;;;20.08;44.50;101778.72;20636177;28;20050;-67
2023/04/20 08:33:59;;;;;;;1.90;1.17;;;;;;;20.09;44.87;101802.06;20626800;28;20078;-67
2023/04/20 08:44:01;;;;;;;1.75;1.10;;;;;;;20.09;45.68;101791.25;20634630;28;20042;-67
2023/04/20 08:54:05;;;;;;;2.05;1.10;;;;;;;20.17;45.17;101800.53;20633077;28;20043;-67
2023/04/20 09:04:16;;;;;;;1.73;1.10;;;;;;;20.19;46.13;101785.06;20620344;28;20112;-68
2023/04/20 09:14:19;;;;;;;3.55;1.17;;;;;;;20.19;46.28;101794.03;20595727;28;1010066;-69
2023/04/20 09:24:23;;;;;;;2.55;1.17;;;;;;;20.18;46.06;101781.50;20633522;28;20053;-69
2023/04/20 09:34:25;;;;;;;2.65;1.20;;;;;;;20.21;46.01;101788.47;20617623;28;20412;-68
2023/04/20 09:44:26;;;;;;;2.67;1.63;;;;;;;20.23;45.71;101787.38;20618874;28;20049;-68
2023/04/20 09:54:28;;;;;;;1.38;1.27;;;;;;;20.25;45.43;101784.53;20626603;28;20053;-68
2023/04/20 10:04:29;;;;;;;1.67;1.40;;;;;;;20.31;44.99;101783.16;20627928;28;20054;-68
2023/04/20 10:14:31;;;;;;;2.35;1.10;;;;;;;20.32;45.05;101774.91;20635420;28;20042;-68
2023/04/20 10:24:33;;;;;;;1.75;1.20;;;;;;;20.44;44.96;101778.41;20637367;28;20046;-69
2023/04/20 10:34:35;;;;;;;1.98;1.20;;;;;;;20.59;45.04;101776.22;20637223;28;20434;-67
2023/04/20 10:44:50;;;;;;;1.30;1.02;;;;;;;20.57;44.90;101775.50;20630174;28;20042;-69
2023/04/20 10:54:53;;;;;;;2.57;1.40;;;;;;;20.54;44.69;101773.91;20625397;28;20595;-68
2023/04/20 11:04:59;;;;;;;1.55;1.17;;;;;;;20.61;44.72;101757.16;20629416;28;20474;-68
2023/04/20 11:15:01;;;;;;;1.63;1.30;;;;;;;20.73;44.53;101740.69;20633973;28;20059;-68
2023/04/20 11:25:08;;;;;;;2.63;1.50;;;;;;;20.73;44.73;101729.88;20622257;28;20105;-67
2023/04/20 11:35:11;;;;;;;2.63;1.23;;;;;;;20.97;45.18;101723.31;20628435;28;20051;-68
2023/04/20 11:45:12;;;;;;;1.92;1.27;;;;;;;21.03;44.86;101702.09;20649202;28;20089;-68
2023/04/20 11:55:14;;;;;;;2.30;1.30;;;;;;;21.03;44.67;101707.53;20642667;28;20077;-67
2023/04/20 12:05:16;;;;;;;1.85;1.48;;;;;;;21.03;44.63;101712.94;20643067;28;20049;-66
2023/04/20 12:15:17;;;;;;;4.40;1.60;;;;;;;21.04;44.43;101715.53;20668482;28;20042;-66
2023/04/20 12:25:19;;;;;;;2.30;1.30;;;;;;;21.04;44.27;101701.13;20663870;28;20451;-66
2023/04/20 12:35:23;;;;;;;2.22;1.50;;;;;;;21.06;44.66;101702.72;20635953;28;20056;-66
2023/04/20 12:45:25;;;;;;;3.17;1.80;;;;;;;21.01;44.61;101708.53;20644124;28;20502;-67
2023/04/20 12:55:27;;;;;;;5.55;2.45;;;;;;;20.99;44.56;101712.34;20643836;28;20138;-67
2023/04/20 13:05:29;;;;;;;4.07;2.38;;;;;;;20.97;44.44;101707.09;20651412;28;20573;-67
2023/04/20 13:15:30;;;;;;;3.92;2.33;;;;;;;20.87;44.23;101660.19;20632622;28;20054;-66
2023/04/20 13:25:40;;;;;;;4.18;2.28;;;;;;;20.91;44.42;101672.44;20631405;28;20486;-67
2023/04/20 13:35:42;;;;;;;4.57;2.58;;;;;;;20.91;44.25;101656.22;20628861;28;20054;-68
2023/04/20 13:45:43;;;;;;;4.60;2.72;;;;;;;20.92;45.14;101673.28;20625483;28;20057;-67
2023/04/20 13:55:47;;;;;;;4.65;2.60;;;;;;;20.94;45.37;101644.22;20624248;28;20070;-67
2023/04/20 14:05:48;;;;;;;4.43;2.45;;;;;;;20.96;45.42;101648.53;20627083;28;20050;-67
2023/04/20 14:15:52;;;;;;;3.50;2.30;;;;;;;20.88;45.19;101618.59;20626947;28;20046;-67
2023/04/20 14:25:55;;;;;;;3.88;2.28;;;;;;;20.93;45.07;101619.03;20646398;28;20046;-67
2023/04/20 14:35:57;;;;;;;4.68;2.30;;;;;;;20.93;44.75;101634.41;20637623;28;20133;-68
2023/04/20 14:45:59;;;;;;;2.65;1.80;;;;;;;20.94;44.71;101609.06;20633891;28;20097;-69
2023/04/20 14:56:02;;;;;;;4.57;2.10;;;;;;;20.98;44.64;101600.53;20630417;28;20054;-66
2023/04/20 15:06:03;;;;;;;2.75;1.48;;;;;;;21.11;46.31;101596.69;20634695;28;20050;-67
2023/04/20 15:16:06;;;;;;;2.50;1.80;;;;;;;21.19;47.07;101587.88;20602008;28;20051;-66
2023/04/20 15:26:08;;;;;;;2.67;1.83;;;;;;;21.23;47.25;101573.03;20571018;28;20430;-65
2023/04/20 15:36:10;;;;;;;1.58;1.30;;;;;;;21.27;48.61;101561.78;20611812;28;20047;-65
2023/04/20 15:46:12;;;;;;;1.85;1.52;;;;;;;21.32;49.20;101555.09;20608954;28;20038;-67
2023/04/20 15:56:14;;;;;;;4.00;1.60;;;;;;;21.35;49.93;101560.22;20599440;28;20156;-66
2023/04/20 16:06:16;;;;;;;3.25;1.60;;;;;;;21.33;49.81;101562.22;20614533;28;20147;-69
2023/04/20 16:16:17;;;;;;;2.63;1.63;;;;;;;21.28;48.80;101565.34;20628275;28;21218;-69
2023/04/20 16:26:20;;;;;;;2.38;1.50;;;;;;;21.21;48.21;101586.75;20648976;28;20061;-70
2023/04/20 16:36:22;;;;;;;2.78;1.75;;;;;;;21.12;47.79;101577.59;20730302;28;20068;-69
2023/04/20 16:46:24;;;;;;;1.95;1.60;;;;;;;21.05;47.40;101567.47;20737970;28;20046;-68
2023/04/20 16:56:26;;;;;;;2.30;1.65;;;;;;;20.99;47.09;101567.03;20737438;28;20444;-69
2023/04/20 17:06:27;;;;;;;2.47;1.88;;;;;;;20.95;47.04;101560.19;20751489;28;20046;-69
2023/04/20 17:16:29;;;;;;;2.45;1.55;;;;;;;20.91;46.68;101558.78;20747781;28;20417;-69
2023/04/20 17:26:31;;;;;;;2.35;1.98;;;;;;;20.89;46.34;101554.50;20748116;28;20589;-69
2023/04/20 17:36:33;;;;;;;2.25;2.05;;;;;;;20.85;46.23;101571.00;20747592;28;20490;-68
2023/04/20 17:46:35;;;;;;;1.67;1.58;;;;;;;20.83;46.17;101577.56;20748106;28;20069;-69
2023/04/20 17:56:37;;;;;;;2.00;1.60;;;;;;;20.80;46.15;101592.22;20745598;28;20132;-69
2023/04/20 18:06:38;;;;;;;1.50;1.40;;;;;;;20.77;45.97;101605.13;20743944;28;20053;-68
2023/04/20 18:16:40;;;;;;;1.77;1.65;;;;;;;20.72;45.92;101609.09;20720717;28;20498;-68
2023/04/20 18:26:42;;;;;;;2.00;1.70;;;;;;;20.68;45.80;101606.84;20583638;28;20054;-68
2023/04/20 18:36:44;;;;;;;1.77;1.55;;;;;;;20.62;45.80;101610.94;20626743;28;20065;-68
2023/04/20 18:46:46;;;;;;;1.70;1.58;;;;;;;20.56;45.73;101622.31;20652813;28;20054;-68
2023/04/20 18:56:49;;;;;;;2.00;1.42;;;;;;;20.54;45.78;101641.38;20656865;28;20475;-68
2023/04/20 19:06:50;;;;;;;2.05;1.60;;;;;;;20.52;46.02;101645.22;20638835;28;20418;-68
2023/04/20 19:16:52;;;;;;;2.22;1.63;;;;;;;20.49;45.79;101642.78;20685974;28;20053;-68
2023/04/20 19:26:54;;;;;;;1.83;1.70;;;;;;;20.47;46.05;101631.25;20685268;28;20534;-68
2023/04/20 19:36:56;;;;;;;1.67;1.55;;;;;;;20.45;46.04;101617.00;20673501;28;20065;-68
2023/04/20 19:46:58;;;;;;;1.38;1.25;;;;;;;20.42;46.19;101618.97;20688756;28;20672;-68
2023/04/20 19:57:00;;;;;;;1.92;1.60;;;;;;;20.33;46.37;101614.41;20669678;28;20046;-68
2023/04/20 20:07:02;;;;;;;1.77;1.50;;;;;;;20.38;46.12;101616.69;20675951;28;20137;-68
2023/04/20 20:17:05;;;;;;;2.20;1.70;;;;;;;20.36;46.37;101624.94;20669066;28;20144;-68
2023/04/20 20:27:07;;;;;;;1.40;1.27;;;;;;;20.35;46.30;101627.75;20711192;28;20492;-68
2023/04/20 20:37:11;;;;;;;2.22;1.90;;;;;;;20.31;46.46;101610.94;20737180;28;20077;-68
2023/04/20 20:47:13;;;;;;;;;;;;;;;20.30;46.50;101620.03;20720889;28;20449;-68
2023/04/20 20:57:15;;;;;;;2.00;1.80;;;;;;;20.27;46.62;101598.69;20706823;28;20325;-68
2023/04/20 21:07:17;;;;;;;3.08;2.00;;;;;;;20.31;46.54;101581.19;20686643;28;20133;-68
2023/04/20 21:17:19;;;;;;;2.80;1.90;;;;;;;20.35;46.74;101573.69;20699282;28;20509;-68
2023/04/20 21:27:20;;;;;;;1.67;1.58;;;;;;;20.35;46.66;101552.91;20714692;28;20092;-68
2023/04/20 21:37:23;;;;;;;2.05;1.80;;;;;;;20.32;46.68;101547.75;20704906;28;20050;-67
2023/04/20 21:47:25;;;;;;;2.28;2.08;;;;;;;20.35;46.91;101560.16;20707212;28;20069;-68
2023/04/20 21:57:26;;;;;;;2.60;2.15;;;;;;;20.35;47.10;101552.91;20703624;28;20064;-68
2023/04/20 22:07:29;;;;;;;2.90;2.60;;;;;;;20.32;47.12;101547.75;20684578;28;20418;-68
2023/04/20 22:17:30;;;;;;;3.50;2.65;;;;;;;20.29;47.14;101553.44;20704990;28;20050;-68
2023/04/20 22:27:33;;;;;;;2.97;2.20;;;;;;;20.31;47.01;101559.56;20725757;28;20121;-68
2023/04/20 22:37:35;;;;;;;2.63;2.00;;;;;;;20.27;47.19;101536.50;20687259;28;20069;-67
2023/04/20 22:47:37;;;;;;;2.63;2.20;;;;;;;20.23;47.09;101522.41;20688694;28;20470;-69
2023/04/20 22:57:39;;;;;;;2.42;2.20;;;;;;;20.22;47.30;101519.84;20697325;28;20054;-68
2023/04/20 23:07:44;;;;;;;2.13;1.92;;;;;;;20.19;47.42;101495.78;20700269;28;20082;-68
2023/04/20 23:17:46;;;;;;;2.25;2.05;;;;;;;20.17;47.26;101486.94;20677772;28;20062;-68
2023/04/20 23:27:47;;;;;;;3.60;2.60;;;;;;;20.14;47.30;101480.00;20696078;28;20045;-68
2023/04/20 23:37:49;;;;;;;2.80;2.60;;;;;;;20.13;47.44;101460.19;20695431;28;20457;-68
2023/04/20 23:47:51;;;;;;;2.22;2.03;;;;;;;20.12;47.52;101430.63;20689209;28;20054;-68
2023/04/20 23:57:53;;;;;;;4.88;2.63;;;;;;;20.10;47.47;101419.94;20705624;28;20162;-68
